Time;durP1;ratioP1;P1;durP2;ratioP2;P2;SDS_P1;SDS_P2;PMS_P1;PMS_P2;Temp;Humidity;BMP_temperature;BMP_pressure;BME280_temperature;BME280_humidity;BME280_pressure;Samples;Min_cycle;Max_cycle;Signal;HPM_P1;HPM_P2
2023/09/03 00:03:04;;;;;;;1.42;1.10;;;18.80;96.90;;;17.70;87.76;100580.47;10289723;28;96734;-91
2023/09/03 00:08:09;;;;;;;1.52;1.33;;;18.80;97.10;;;17.71;88.62;100578.59;10293119;28;96783;-90
2023/09/03 00:13:13;;;;;;;2.40;1.25;;;18.80;97.30;;;17.73;89.25;100566.63;10295240;28;98681;-90
2023/09/03 00:18:17;;;;;;;2.95;1.20;;;18.90;97.50;;;17.80;89.18;100572.00;10295273;28;97223;-91
2023/09/03 00:23:21;;;;;;;2.50;1.13;;;18.90;97.70;;;17.83;89.35;100577.81;10297248;28;98806;-90
2023/09/03 00:28:26;;;;;;;1.80;1.30;;;18.90;97.80;;;17.85;89.70;100569.53;10302262;28;97886;-91
2023/09/03 00:33:30;;;;;;;2.35;1.40;;;18.90;97.90;;;17.75;89.35;100555.66;10299090;28;98663;-90
2023/09/03 00:38:33;;;;;;;2.08;1.50;;;18.90;98.00;;;17.81;89.59;100585.25;10279183;28;96455;-90
2023/09/03 00:43:39;;;;;;;2.83;1.42;;;18.90;98.20;;;17.75;89.73;100580.72;10318642;28;96639;-90
2023/09/03 00:48:43;;;;;;;2.33;1.65;;;18.90;98.20;;;17.73;90.00;100592.69;10307356;28;96772;-91
2023/09/03 00:53:53;;;;;;;2.08;1.33;;;18.90;98.30;;;17.72;90.56;100588.34;10312222;28;96637;-91
2023/09/03 00:58:59;;;;;;;2.40;1.45;;;18.90;98.50;;;17.65;90.59;100578.38;10306432;28;96932;-91
2023/09/03 01:04:03;;;;;;;2.30;1.52;;;18.70;98.70;;;17.59;90.66;100576.50;10296677;28;97526;-91
2023/09/03 01:09:07;;;;;;;2.00;1.48;;;18.70;99.00;;;17.52;91.40;100564.94;10285177;28;96657;-91
2023/09/03 01:14:48;;;;;;;2.15;1.50;;;18.70;99.40;;;17.42;92.00;100564.50;10309617;28;96551;-90
2023/09/03 01:20:16;;;;;;;4.03;1.70;;;18.50;99.60;;;17.43;93.19;100570.69;10304753;28;97051;-90
2023/09/03 01:25:47;;;;;;;6.45;2.17;;;18.50;99.90;;;17.48;93.03;100562.84;10351668;28;96611;-91
2023/09/03 01:31:02;;;;;;;4.28;1.60;;;18.50;99.90;;;17.49;92.99;100554.56;10351453;28;98523;-90
2023/09/03 01:36:09;;;;;;;2.10;1.60;;;18.60;99.90;;;17.50;92.88;100550.84;10322545;28;96637;-91
2023/09/03 01:41:13;;;;;;;2.33;1.45;;;18.60;99.90;;;17.41;93.03;100554.78;10304699;28;96601;-91
2023/09/03 01:46:31;;;;;;;2.53;1.58;;;18.50;99.90;;;17.32;93.68;100554.13;10314686;28;97976;-90
2023/09/03 01:51:44;;;;;;;2.10;1.55;;;18.40;99.90;;;17.21;93.55;100549.34;10282165;28;97384;-91
2023/09/03 01:57:04;;;;;;;3.15;2.00;;;18.30;99.90;;;17.14;95.20;100556.56;10300315;28;98862;-90
2023/09/03 02:02:13;;;;;;;2.65;1.75;;;18.20;99.90;;;17.03;96.14;100549.09;10308075;28;97171;-90
2023/09/03 02:07:16;;;;;;;2.45;1.55;;;18.10;99.90;;;16.98;97.42;100562.31;10288349;28;96653;-90
2023/09/03 02:12:23;;;;;;;3.20;1.67;;;18.00;99.90;;;16.96;98.18;100559.81;10291569;28;96967;-90
2023/09/03 02:17:27;;;;;;;2.10;1.50;;;18.00;99.90;;;16.99;98.26;100554.03;10284000;28;96639;-90
2023/09/03 02:22:35;;;;;;;2.00;1.50;;;18.00;99.90;;;17.00;98.07;100554.88;10277231;28;96661;-91
2023/09/03 02:27:41;;;;;;;2.53;1.80;;;18.00;99.90;;;17.06;97.72;100559.44;10315551;28;96675;-91
2023/09/03 02:32:45;;;;;;;2.20;1.45;;;18.10;99.90;;;17.03;97.81;100562.50;10306458;28;97183;-90
2023/09/03 02:37:48;;;;;;;3.00;1.58;;;18.10;99.90;;;17.06;97.39;100571.00;10268400;28;97617;-91
2023/09/03 02:42:52;;;;;;;2.30;1.60;;;18.10;99.90;;;17.01;97.63;100564.56;10289159;28;97469;-91
2023/09/03 02:47:57;;;;;;;2.67;1.95;;;18.10;99.90;;;17.01;97.59;100561.88;10310582;28;98284;-91
2023/09/03 02:53:01;;;;;;;2.50;1.65;;;18.00;99.90;;;17.00;97.21;100557.56;10308242;28;98065;-90
2023/09/03 02:58:06;;;;;;;2.08;1.50;;;18.10;99.90;;;16.98;97.27;100554.25;10315565;28;97402;-91
2023/09/03 03:03:09;;;;;;;2.17;1.40;;;18.10;99.90;;;17.00;96.95;100553.00;10292389;28;96779;-91
2023/09/03 03:08:13;;;;;;;2.55;1.60;;;18.10;99.90;;;16.99;96.56;100567.47;10311413;28;96757;-91
2023/09/03 03:13:17;;;;;;;2.63;1.35;;;18.10;99.90;;;16.97;96.64;100571.38;10331424;28;96811;-91
2023/09/03 03:18:21;;;;;;;2.60;2.00;;;18.00;99.90;;;16.95;96.45;100592.22;10309824;28;97537;-90
2023/09/03 03:23:25;;;;;;;2.28;1.55;;;18.10;99.90;;;16.87;96.26;100590.53;10287725;28;97422;-90
2023/09/03 03:28:32;;;;;;;2.67;1.52;;;18.00;99.90;;;16.86;96.51;100610.38;10289467;28;97717;-90
2023/09/03 03:33:42;;;;;;;2.88;1.23;;;18.00;99.90;;;16.82;97.09;100647.50;10313938;28;96771;-90
2023/09/03 03:38:46;;;;;;;1.98;1.58;;;18.00;99.90;;;16.78;98.26;100629.28;10271679;28;97626;-90
2023/09/03 03:43:52;;;;;;;2.33;1.60;;;17.90;99.90;;;16.83;98.54;100664.44;10315838;28;96679;-90
2023/09/03 03:48:55;;;;;;;1.92;1.40;;;18.00;99.90;;;16.91;100.00;100650.84;10306978;28;96746;-90
2023/09/03 03:54:03;;;;;;;2.28;1.40;;;18.00;99.90;;;17.09;100.00;100677.16;10319392;28;96824;-90
2023/09/03 03:59:06;;;;;;;1.67;1.20;;;18.10;99.90;;;17.25;99.58;100687.56;10303869;28;96734;-90
2023/09/03 04:04:10;;;;;;;2.05;1.30;;;18.30;99.90;;;17.35;99.40;100703.34;10303593;28;97469;-90
2023/09/03 04:09:14;;;;;;;1.55;1.00;;;18.50;99.90;;;17.35;98.80;100698.78;10323908;28;96592;-90
2023/09/03 04:14:17;;;;;;;13.70;10.77;;;18.50;99.90;;;17.52;98.39;100703.81;10301521;28;96792;-90
2023/09/03 04:19:21;;;;;;;3.30;2.00;;;18.60;99.90;;;17.60;98.65;100684.81;10287521;28;97302;-89
2023/09/03 04:24:24;;;;;;;4.32;1.48;;;18.70;99.90;;;17.70;98.13;100682.59;10319338;28;96632;-90
2023/09/03 04:29:28;;;;;;;2.28;1.20;;;18.80;99.90;;;17.83;96.55;100653.06;10320415;28;99009;-91
2023/09/03 04:34:32;;;;;;;2.17;0.82;;;18.90;99.90;;;17.95;93.30;100645.25;10330883;28;97782;-88
2023/09/03 04:39:35;;;;;;;1.35;1.00;;;19.10;99.90;;;18.05;92.04;100650.19;10303850;28;96568;-89
2023/09/03 04:44:39;;;;;;;1.80;0.90;;;19.10;99.90;;;18.10;90.55;100650.41;10314096;28;97404;-90
2023/09/03 04:49:43;;;;;;;2.08;0.90;;;19.20;99.90;;;18.13;89.21;100647.31;10326185;28;96555;-91
2023/09/03 04:54:46;;;;;;;1.83;0.70;;;19.30;99.90;;;18.06;88.56;100633.88;10272821;28;96712;-90
2023/09/03 04:59:50;;;;;;;1.92;0.70;;;19.30;99.90;;;18.09;87.41;100629.94;10313299;28;98012;-91
2023/09/03 05:04:54;;;;;;;1.05;0.57;;;19.30;99.90;;;18.03;86.67;100614.63;10317745;28;96728;-91
2023/09/03 05:09:58;;;;;;;1.23;0.70;;;19.30;99.90;;;18.03;86.68;100615.44;10301336;28;96611;-91
2023/09/03 05:15:02;;;;;;;1.73;0.70;;;19.30;99.90;;;18.13;86.73;100615.03;10297252;28;96844;-91
2023/09/03 05:20:10;;;;;;;0.90;0.50;;;19.30;99.90;;;18.22;86.57;100623.72;10316615;28;96760;-91
2023/09/03 05:25:15;;;;;;;1.70;0.98;;;19.40;99.90;;;18.30;86.23;100640.50;10317377;28;96455;-92
2023/09/03 05:30:19;;;;;;;2.25;0.75;;;19.50;99.90;;;18.35;86.58;100659.53;10291201;28;96838;-90
2023/09/03 05:35:23;;;;;;;3.22;1.05;;;19.50;99.90;;;18.26;87.84;100647.31;10305082;28;97833;-91
2023/09/03 05:40:27;;;;;;;4.45;0.82;;;19.50;99.90;;;18.03;89.90;100636.97;10285444;28;97481;-92
2023/09/03 05:45:30;;;;;;;1.40;0.70;;;19.30;99.90;;;17.76;92.17;100635.28;10305162;28;96921;-90
2023/09/03 05:50:34;;;;;;;2.22;1.02;;;19.10;99.90;;;17.60;94.59;100655.25;10305875;28;96622;-91
2023/09/03 05:55:39;;;;;;;1.50;0.85;;;18.90;99.90;;;17.43;97.09;100653.97;10289664;28;97376;-91
2023/09/03 06:00:43;;;;;;;2.47;1.08;;;18.70;99.90;;;17.35;99.93;100668.41;10292506;28;97361;-91
2023/09/03 06:05:47;;;;;;;0.98;0.70;;;18.60;99.90;;;17.29;100.00;100670.03;10321960;28;97185;-91
2023/09/03 06:10:56;;;;;;;2.10;1.10;;;18.50;99.90;;;17.33;100.00;100675.81;10288776;28;98189;-91
2023/09/03 06:15:59;;;;;;;1.67;0.80;;;18.50;99.90;;;17.41;100.00;100642.59;10304076;28;97709;-90
2023/09/03 06:21:04;;;;;;;1.98;1.20;;;18.60;99.90;;;17.41;100.00;100634.53;10286490;28;96935;-91
2023/09/03 06:26:08;;;;;;;3.20;0.70;;;18.70;99.90;;;17.51;100.00;100651.09;10305454;28;97160;-90
2023/09/03 06:31:12;;;;;;;2.90;1.08;;;18.70;99.90;;;17.60;100.00;100657.97;10310548;28;98632;-89
2023/09/03 06:36:16;;;;;;;1.77;0.80;;;18.80;99.90;;;17.74;100.00;100689.22;10297486;28;96609;-90
2023/09/03 06:41:20;;;;;;;2.85;0.85;;;18.90;99.90;;;17.91;100.00;100678.94;10313198;28;97024;-88
2023/09/03 06:46:24;;;;;;;1.88;0.52;;;19.10;99.90;;;18.05;100.00;100663.63;10283421;28;96856;-89
2023/09/03 06:51:28;;;;;;;1.02;0.55;;;19.30;99.90;;;18.18;100.00;100658.28;10278799;28;96847;-89
2023/09/03 06:56:32;;;;;;;3.47;0.63;;;19.40;99.90;;;18.31;100.00;100650.22;10312092;28;98276;-89
2023/09/03 07:01:36;;;;;;;2.08;0.60;;;19.60;99.90;;;18.39;100.00;100662.63;10309502;28;98650;-89
2023/09/03 07:06:40;;;;;;;3.25;0.60;;;19.70;99.90;;;18.48;100.00;100645.25;10312443;28;96744;-89
2023/09/03 07:11:43;;;;;;;0.80;0.60;;;19.80;99.90;;;18.62;100.00;100646.03;10310473;28;96617;-88
2023/09/03 07:16:47;;;;;;;1.95;0.55;;;19.90;99.90;;;18.73;100.00;100656.22;10309013;28;99215;-89
2023/09/03 07:21:51;;;;;;;2.30;0.60;;;20.00;99.90;;;18.85;100.00;100632.16;10281693;28;98579;-89
2023/09/03 07:26:54;;;;;;;1.40;0.60;;;20.10;99.90;;;18.94;100.00;100636.25;10302712;28;96782;-89
2023/09/03 07:31:58;;;;;;;1.10;0.47;;;20.20;99.90;;;19.03;100.00;100626.09;10317580;28;97176;-89
2023/09/03 07:37:01;;;;;;;1.20;0.63;;;20.30;99.90;;;19.12;100.00;100622.09;10279756;28;97214;-89
2023/09/03 07:42:05;;;;;;;1.45;0.60;;;20.40;99.90;;;19.28;100.00;100616.25;10286271;28;96660;-88
2023/09/03 07:47:09;;;;;;;1.00;0.50;;;20.50;99.90;;;19.39;100.00;100614.75;10321924;28;98507;-89
2023/09/03 07:52:13;;;;;;;1.20;0.70;;;20.60;99.90;;;19.48;100.00;100602.66;10289685;28;98475;-89
2023/09/03 07:57:17;;;;;;;2.08;0.85;;;20.80;99.90;;;19.60;100.00;100632.47;10334346;28;96684;-88
2023/09/03 08:02:20;;;;;;;1.75;0.57;;;20.90;99.90;;;19.68;100.00;100622.28;10316962;28;97015;-89
2023/09/03 08:07:24;;;;;;;1.05;0.75;;;20.90;99.90;;;19.76;100.00;100619.31;10278300;28;97436;-88
2023/09/03 08:12:28;;;;;;;1.70;0.70;;;21.00;99.90;;;19.89;100.00;100626.47;10284002;28;98833;-89
2023/09/03 08:17:32;;;;;;;1.23;0.80;;;21.10;99.90;;;20.00;100.00;100624.94;10280145;28;98779;-89
2023/09/03 08:22:37;;;;;;;1.58;0.77;;;21.20;99.90;;;20.27;100.00;100645.28;10291044;28;98166;-89
2023/09/03 08:27:40;;;;;;;1.30;0.77;;;21.40;99.90;;;20.47;100.00;100655.94;10292604;28;97950;-88
2023/09/03 08:32:44;;;;;;;3.05;0.85;;;21.60;99.90;;;20.67;99.84;100649.50;10316469;28;96695;-89
2023/09/03 08:37:49;;;;;;;1.08;0.70;;;21.80;99.90;;;20.78;99.57;100646.06;10289985;28;96764;-89
2023/09/03 08:42:53;;;;;;;1.35;0.70;;;22.00;99.90;;;20.97;97.21;100647.72;10296425;28;98523;-91
2023/09/03 08:47:57;;;;;;;2.92;0.80;;;22.10;99.90;;;21.00;93.22;100633.78;10312584;28;97247;-91
2023/09/03 08:53:02;;;;;;;1.00;0.68;;;22.20;99.90;;;21.09;91.27;100635.09;10311717;28;97407;-91
2023/09/03 08:58:05;;;;;;;2.85;0.65;;;22.20;99.90;;;21.12;88.68;100647.34;10286221;28;98226;-91
2023/09/03 09:03:13;;;;;;;1.13;0.50;;;22.30;99.90;;;21.18;88.40;100645.63;10285508;28;99355;-92
2023/09/03 09:08:17;;;;;;;0.90;0.52;;;22.30;99.90;;;21.33;87.17;100644.19;10326735;28;98898;-92
2023/09/03 09:13:24;;;;;;;1.55;0.95;;;22.40;99.90;;;21.51;85.20;100640.63;10305812;28;96758;-91
2023/09/03 09:18:28;;;;;;;0.60;0.50;;;22.60;99.90;;;21.68;83.94;100648.09;10290443;28;97590;-92
2023/09/03 09:23:32;;;;;;;2.38;0.65;;;22.80;99.90;;;21.81;83.27;100650.63;10305149;28;97341;-92
2023/09/03 09:28:35;;;;;;;1.35;0.50;;;22.90;99.90;;;22.01;82.94;100661.13;10303658;28;98157;-91
2023/09/03 09:33:50;;;;;;;0.70;0.40;;;23.10;99.90;;;22.19;82.93;100644.88;10285224;28;96911;-91
2023/09/03 09:39:06;;;;;;;0.68;0.40;;;23.30;99.90;;;22.33;77.65;100653.56;10308058;28;96545;-91
2023/09/03 09:44:10;;;;;;;1.05;0.32;;;23.40;98.70;;;22.34;74.09;100663.34;10292006;28;96706;-91
2023/09/03 09:49:14;;;;;;;0.40;0.20;;;23.40;98.00;;;22.16;73.48;100643.44;10303811;28;99011;-91
2023/09/03 09:54:18;;;;;;;2.00;0.77;;;23.30;97.30;;;22.04;72.88;100664.19;10295843;28;97231;-92
2023/09/03 09:59:27;;;;;;;1.35;0.52;;;23.10;96.90;;;21.89;73.40;100659.25;10299500;28;96686;-91
2023/09/03 10:04:30;;;;;;;1.17;0.60;;;22.90;96.90;;;21.86;73.75;100659.69;10289385;28;99094;-92
2023/09/03 10:09:37;;;;;;;0.98;0.68;;;22.90;97.20;;;21.77;73.11;100662.94;10294503;28;97439;-92
2023/09/03 10:14:41;;;;;;;1.67;0.60;;;22.70;96.80;;;21.69;74.22;100666.81;10291314;28;96933;-91
2023/09/03 10:19:58;;;;;;;2.45;0.80;;;22.70;97.20;;;21.69;75.22;100663.28;10290173;28;96808;-93
2023/09/03 10:25:08;;;;;;;2.47;0.77;;;22.60;97.30;;;21.71;76.25;100656.59;10321087;28;98498;-91
2023/09/03 10:30:19;;;;;;;2.30;0.70;;;22.70;97.70;;;21.79;77.08;100650.84;10298735;28;97166;-91
2023/09/03 10:35:23;;;;;;;0.82;0.60;;;22.70;97.90;;;21.91;77.62;100640.06;10325101;28;96842;-91
2023/09/03 10:40:30;;;;;;;1.20;0.60;;;22.90;98.10;;;22.00;77.28;100632.41;10314705;28;96618;-92
2023/09/03 10:45:34;;;;;;;2.00;0.80;;;23.00;98.00;;;22.02;77.04;100641.97;10282745;28;97467;-92
2023/09/03 10:50:43;;;;;;;0.90;0.70;;;23.10;97.90;;;22.03;77.86;100642.78;10312071;28;96593;-92
2023/09/03 10:56:11;;;;;;;1.00;0.40;;;23.10;98.10;;;22.05;77.86;100646.91;10313192;28;97068;-92
2023/09/03 11:01:26;;;;;;;1.30;0.85;;;23.10;98.20;;;22.07;78.66;100643.97;10329745;28;96599;-92
2023/09/03 11:06:32;;;;;;;0.88;0.70;;;23.10;98.30;;;22.16;79.31;100638.00;10292125;28;96631;-92
2023/09/03 11:11:40;;;;;;;1.00;0.80;;;23.20;98.50;;;22.17;75.20;100639.66;10312768;28;96467;-92
2023/09/03 11:16:43;;;;;;;1.50;0.68;;;23.20;97.40;;;22.09;75.62;100620.22;10289625;28;96682;-92
2023/09/03 11:21:47;;;;;;;1.08;0.77;;;23.10;97.50;;;22.06;75.86;100620.66;10345204;27;96464;-92
2023/09/03 11:27:04;;;;;;;1.45;1.10;;;23.10;97.50;;;22.08;75.56;100623.97;10332961;28;96738;-92
2023/09/03 11:32:07;;;;;;;1.58;0.90;;;23.10;97.40;;;22.18;76.96;100621.53;10285385;28;96935;-93
2023/09/03 11:37:11;;;;;;;2.28;1.00;;;23.10;97.70;;;22.35;76.63;100619.78;10296267;28;97878;-91
2023/09/03 11:42:15;;;;;;;3.83;1.00;;;23.40;97.60;;;22.49;74.25;100609.56;10286818;28;96511;-92
2023/09/03 11:47:19;;;;;;;2.83;1.10;;;23.50;97.00;;;22.63;73.10;100600.13;10312988;28;98139;-92
2023/09/03 11:52:23;;;;;;;1.10;0.90;;;23.70;96.70;;;22.81;72.61;100601.84;10275720;28;96614;-92
2023/09/03 11:57:28;;;;;;;1.10;0.90;;;23.80;96.40;;;22.95;72.05;100592.41;10282636;28;97069;-93
2023/09/03 12:02:33;;;;;;;1.92;0.85;;;23.90;96.10;;;23.03;72.40;100568.72;10305158;28;98539;-93
2023/09/03 12:07:36;;;;;;;1.60;1.00;;;24.00;96.30;;;23.08;72.15;100585.88;10310331;28;96606;-92
2023/09/03 12:12:42;;;;;;;1.80;0.95;;;24.10;96.30;;;23.08;70.89;100590.50;10275583;28;96619;-96
2023/09/03 12:17:46;;;;;;;2.13;1.17;;;24.10;95.20;;;23.10;71.67;100591.91;10292186;28;96611;-91
2023/09/03 12:22:50;;;;;;;1.77;0.90;;;24.10;95.70;;;23.07;72.10;100603.22;10321177;28;96727;-91
2023/09/03 12:27:53;;;;;;;3.63;1.38;;;24.10;95.80;;;22.88;71.35;100594.44;10320466;28;96676;-91
2023/09/03 12:32:57;;;;;;;1.15;1.00;;;23.90;95.70;;;22.79;71.19;100592.31;10292875;28;96666;-92
2023/09/03 12:38:01;;;;;;;1.33;0.90;;;23.80;95.60;;;22.70;69.92;100584.56;10315993;28;96568;-89
2023/09/03 12:43:05;;;;;;;1.50;1.00;;;23.70;95.20;;;22.71;68.80;100585.38;10335931;28;96695;-90
2023/09/03 12:48:08;;;;;;;1.23;1.00;;;23.70;94.80;;;22.64;67.62;100574.66;10330603;28;96923;-90
2023/09/03 12:53:12;;;;;;;1.52;1.13;;;23.70;94.10;;;22.75;68.10;100564.06;10324776;28;96636;-91
2023/09/03 12:58:15;;;;;;;1.60;1.13;;;23.70;94.20;;;23.01;68.68;100574.38;10338200;28;97559;-91
2023/09/03 13:03:20;;;;;;;1.63;1.30;;;24.00;94.40;;;23.15;68.07;100573.03;10287998;28;98176;-91
2023/09/03 13:08:24;;;;;;;2.10;1.30;;;24.10;94.20;;;23.07;68.23;100569.88;10303819;28;96554;-91
2023/09/03 13:13:29;;;;;;;1.98;1.40;;;24.10;94.10;;;22.90;69.02;100572.53;10304441;28;96471;-92
2023/09/03 13:18:33;;;;;;;1.70;1.40;;;24.00;94.30;;;22.86;68.59;100583.00;10300012;28;97702;-91
2023/09/03 13:23:41;;;;;;;2.85;1.73;;;23.90;94.20;;;22.69;69.23;100582.91;10318345;28;97362;-92
2023/09/03 13:28:45;;;;;;;3.20;1.98;;;23.70;94.30;;;22.69;70.07;100566.66;10307654;28;96684;-91
2023/09/03 13:33:48;;;;;;;2.40;1.85;;;23.70;94.60;;;22.86;70.34;100555.91;10302720;28;98186;-91
2023/09/03 13:38:52;;;;;;;2.30;1.60;;;23.80;94.80;;;22.96;69.59;100561.53;10310017;28;97899;-91
2023/09/03 13:43:56;;;;;;;2.28;1.80;;;24.00;94.60;;;22.85;69.15;100556.97;10299573;28;97477;-91
2023/09/03 13:49:00;;;;;;;2.20;2.00;;;23.90;94.40;;;22.73;69.44;100552.63;10299165;28;96595;-91
2023/09/03 13:54:05;;;;;;;2.35;2.00;;;23.80;94.30;;;22.66;69.92;100545.44;10313550;28;96846;-91
2023/09/03 13:59:08;;;;;;;2.85;2.42;;;23.70;94.50;;;22.58;69.72;100543.13;10292018;28;96546;-91
2023/09/03 14:04:12;;;;;;;2.60;2.25;;;23.60;94.40;;;22.55;70.04;100550.88;10292673;28;96648;-90
2023/09/03 14:09:16;;;;;;;2.47;2.28;;;23.50;94.60;;;22.52;69.77;100538.66;10287301;28;97053;-91
2023/09/03 14:14:20;;;;;;;2.63;2.17;;;23.50;94.40;;;22.59;69.73;100547.47;10293214;28;97169;-91
2023/09/03 14:19:25;;;;;;;2.85;2.40;;;23.60;94.20;;;22.83;69.08;100547.41;10312126;28;97455;-90
2023/09/03 14:24:29;;;;;;;2.45;2.13;;;23.80;94.00;;;23.05;67.69;100547.63;10318969;28;97690;-92
2023/09/03 14:29:32;;;;;;;2.03;1.83;;;24.00;93.70;;;23.31;66.69;100547.03;10284496;28;97498;-93
2023/09/03 14:34:41;;;;;;;3.15;2.08;;;24.30;93.20;;;23.69;63.94;100531.97;10300943;28;98681;-91
2023/09/03 14:39:46;;;;;;;2.70;2.00;;;24.80;92.20;;;24.18;62.59;100532.22;10329182;28;96670;-91
2023/09/03 14:44:50;;;;;;;1.95;1.42;;;25.40;91.50;;;24.62;58.10;100524.94;10358114;28;96404;-91
2023/09/03 14:49:54;;;;;;;1.67;1.55;;;26.10;88.90;;;24.82;53.93;100525.19;10301252;28;96868;-90
2023/09/03 14:54:57;;;;;;;2.25;1.30;;;26.10;84.20;;;25.19;53.42;100518.25;10295509;28;96813;-90
2023/09/03 15:00:01;;;;;;;1.60;1.20;;;26.50;83.50;;;25.86;51.24;100524.06;10286283;28;97742;-90
2023/09/03 15:05:07;;;;;;;2.00;1.20;;;27.40;81.00;;;26.40;47.20;100521.16;10277997;28;97876;-90
2023/09/03 15:10:11;;;;;;;1.70;1.60;;;28.00;76.30;;;26.66;45.76;100527.53;10290392;28;96939;-89
2023/09/03 15:15:15;;;;;;;1.10;0.98;;;28.30;72.60;;;26.84;44.74;100511.81;10294585;28;97519;-90
2023/09/03 15:20:18;;;;;;;1.50;1.30;;;28.40;70.60;;;27.19;44.63;100508.38;10313022;28;97414;-90
2023/09/03 15:25:22;;;;;;;1.65;1.10;;;28.70;70.70;;;27.53;43.57;100502.38;10292784;28;96772;-90
2023/09/03 15:30:28;;;;;;;1.58;1.10;;;29.00;69.50;;;27.95;42.58;100497.47;10301337;28;96719;-92
2023/09/03 15:35:37;;;;;;;1.20;1.10;;;29.40;68.20;;;28.10;42.10;100506.72;10294036;28;98589;-90
2023/09/03 15:40:41;;;;;;;1.30;1.00;;;29.50;67.00;;;28.08;41.02;100504.28;10304870;28;97064;-90
2023/09/03 15:45:44;;;;;;;1.30;1.00;;;29.50;65.60;;;27.69;39.89;100506.78;10316323;28;96814;-92
2023/09/03 15:50:48;;;;;;;2.20;1.45;;;29.00;63.80;;;27.43;40.06;100511.41;10293061;28;98506;-91
2023/09/03 15:55:56;;;;;;;1.38;1.10;;;28.80;63.40;;;26.91;39.99;100528.72;10286579;28;97299;-91
2023/09/03 16:01:05;;;;;;;1.40;1.20;;;28.20;62.60;;;26.22;41.51;100528.94;10298968;28;99707;-91
2023/09/03 16:06:09;;;;;;;;;;;27.40;63.70;;;25.43;42.54;100537.81;10288263;28;97520;-91
2023/09/03 16:11:14;;;;;;;1.33;1.17;;;26.50;64.80;;;24.64;43.79;100547.25;10315318;28;96816;-90
2023/09/03 16:16:18;;;;;;;1.90;1.23;;;25.80;65.90;;;24.00;44.72;100547.69;10312489;28;97009;-89
2023/09/03 16:21:21;;;;;;;1.55;1.15;;;25.10;66.90;;;23.53;46.10;100538.19;10282796;28;96842;-90
2023/09/03 16:26:25;;;;;;;1.15;0.88;;;24.60;68.20;;;23.16;47.23;100547.56;10298416;28;98276;-90
2023/09/03 16:31:29;;;;;;;1.45;1.08;;;24.20;69.20;;;22.85;47.99;100553.41;10305410;28;96929;-89
2023/09/03 16:36:32;;;;;;;2.05;1.40;;;23.90;70.30;;;22.61;48.45;100558.91;10298325;28;96690;-89
2023/09/03 16:41:36;;;;;;;1.30;1.00;;;23.60;70.60;;;22.44;49.22;100563.41;10293321;28;97692;-89
2023/09/03 16:46:40;;;;;;;3.20;1.30;;;23.40;71.50;;;22.24;49.87;100562.94;10281794;28;98396;-89
2023/09/03 16:51:44;;;;;;;1.98;1.40;;;23.30;72.10;;;22.13;50.26;100565.41;10316098;28;96988;-89
2023/09/03 16:56:47;;;;;;;2.00;1.20;;;23.10;72.40;;;21.97;50.97;100565.25;10311493;28;96882;-89
2023/09/03 17:01:51;;;;;;;1.13;0.90;;;22.90;72.90;;;21.70;51.67;100545.91;10301517;28;96802;-89
2023/09/03 17:06:56;;;;;;;2.00;1.42;;;22.80;73.50;;;21.66;51.35;100550.16;10306539;28;96903;-89
2023/09/03 17:12:03;;;;;;;2.00;1.58;;;22.60;73.70;;;21.57;51.71;100563.19;10294065;28;96943;-89
2023/09/03 17:17:07;;;;;;;2.63;1.17;;;22.60;73.90;;;21.47;51.66;100571.00;10288687;28;96571;-89
2023/09/03 17:22:10;;;;;;;1.80;0.95;;;22.50;74.00;;;21.38;51.84;100575.94;10316746;28;99245;-89
2023/09/03 17:27:14;;;;;;;2.17;1.30;;;22.40;74.10;;;21.28;51.92;100571.03;10300487;28;96748;-89
2023/09/03 17:32:18;;;;;;;2.13;1.10;;;22.30;74.20;;;21.21;51.79;100585.69;10303155;28;96426;-89
2023/09/03 17:37:24;;;;;;;1.38;1.15;;;22.20;74.30;;;21.19;52.47;100598.63;10336681;28;96498;-89
2023/09/03 17:42:31;;;;;;;1.75;1.20;;;22.20;74.50;;;21.16;52.40;100608.00;10303501;28;96470;-89
2023/09/03 17:47:36;;;;;;;2.00;1.35;;;22.20;74.40;;;21.13;52.20;100621.97;10330983;28;97616;-89
2023/09/03 17:52:40;;;;;;;1.65;1.17;;;22.10;74.30;;;21.10;52.32;100619.72;10309811;28;96691;-88
2023/09/03 17:57:45;;;;;;;2.95;1.30;;;22.10;74.50;;;21.04;52.43;100621.44;10303874;28;98220;-88
2023/09/03 18:02:51;;;;;;;2.10;1.20;;;22.10;74.70;;;20.95;52.68;100627.41;10327389;28;98324;-89
2023/09/03 18:07:55;;;;;;;1.70;1.20;;;22.00;74.70;;;20.96;52.83;100643.38;10302835;28;96524;-88
2023/09/03 18:13:00;;;;;;;2.63;1.40;;;22.00;74.80;;;20.88;53.40;100649.09;10292564;28;96693;-89
2023/09/03 18:18:05;;;;;;;2.30;1.25;;;22.00;75.30;;;20.81;53.69;100662.66;10310120;28;96933;-89
2023/09/03 18:23:10;;;;;;;2.92;1.38;;;21.90;75.60;;;20.72;54.05;100674.78;10299704;28;96618;-89
2023/09/03 18:28:14;;;;;;;2.70;1.33;;;21.80;75.70;;;20.56;54.63;100670.78;10303844;28;97647;-88
2023/09/03 18:33:18;;;;;;;6.40;3.67;;;21.70;76.20;;;20.38;55.70;100678.81;10305207;28;96721;-89
2023/09/03 18:38:22;;;;;;;4.75;2.70;;;21.60;76.90;;;20.21;56.49;100696.59;10297279;28;97980;-89
2023/09/03 18:43:27;;;;;;;2.90;1.92;;;21.40;78.00;;;20.04;57.45;100688.22;10300800;28;96614;-88
2023/09/03 18:48:31;;;;;;;2.65;1.38;;;21.30;78.10;;;19.87;57.91;100681.69;10315240;28;96637;-90
2023/09/03 18:53:37;;;;;;;3.50;1.60;;;21.10;78.80;;;19.62;58.69;100682.44;10307467;28;96693;-90
2023/09/03 18:58:41;;;;;;;1.92;1.50;;;20.80;79.50;;;19.47;59.39;100693.47;10313294;28;96546;-90
2023/09/03 19:03:47;;;;;;;1.95;1.50;;;20.60;80.20;;;19.25;60.55;100692.09;10307021;28;96669;-90
2023/09/03 19:08:51;;;;;;;2.20;1.45;;;20.40;81.30;;;19.05;61.66;100704.81;10314907;28;98341;-87
2023/09/03 19:13:55;;;;;;;2.47;1.50;;;20.20;82.00;;;18.81;62.51;100709.81;10316321;28;96827;-88
2023/09/03 19:18:59;;;;;;;2.25;1.60;;;20.00;82.80;;;18.62;63.30;100707.94;10294054;28;100062;-86
2023/09/03 19:24:04;;;;;;;2.13;1.38;;;19.80;83.20;;;18.50;63.23;100704.22;10294864;28;96968;-87
2023/09/03 19:29:08;;;;;;;2.03;1.52;;;19.70;83.50;;;18.51;62.73;100700.50;10300868;28;96657;-86
2023/09/03 19:34:12;;;;;;;2.08;1.63;;;19.60;83.40;;;18.56;62.72;100717.69;10309495;28;97508;-86
2023/09/03 19:39:29;;;;;;;1.48;1.38;;;19.60;83.30;;;18.61;62.51;100727.84;10278692;28;96641;-87
2023/09/03 19:44:32;;;;;;;2.10;1.63;;;19.70;83.10;;;18.64;62.33;100736.31;10288602;28;96678;-86
2023/09/03 19:49:36;;;;;;;3.22;2.08;;;19.70;83.10;;;18.60;62.92;100736.94;10306446;28;96756;-87
2023/09/03 19:54:40;;;;;;;2.22;1.70;;;19.70;83.40;;;18.58;62.97;100742.50;10298244;28;98451;-87
2023/09/03 19:59:46;;;;;;;2.88;2.00;;;19.70;83.60;;;18.49;63.31;100742.94;10331992;28;96553;-87
2023/09/03 20:04:50;;;;;;;2.78;1.88;;;19.70;83.90;;;18.35;63.98;100756.41;10301950;28;96679;-88
2023/09/03 20:09:54;;;;;;;8.02;2.15;;;19.60;84.50;;;18.18;64.98;100753.25;10308391;28;96760;-87
2023/09/03 20:14:57;;;;;;;2.70;1.98;;;19.50;85.00;;;18.05;66.06;100760.44;10307050;28;96564;-88
2023/09/03 20:20:01;;;;;;;2.22;1.65;;;19.30;85.80;;;17.85;66.86;100766.59;10305933;28;97828;-87
2023/09/03 20:25:09;;;;;;;2.92;2.10;;;19.10;86.50;;;17.70;67.63;100771.28;10298216;28;96641;-88
2023/09/03 20:30:13;;;;;;;3.78;1.90;;;18.90;87.40;;;17.49;68.56;100780.28;10334280;28;98914;-87
2023/09/03 20:35:18;;;;;;;2.85;2.08;;;18.70;88.30;;;17.35;69.45;100783.94;10357701;28;97053;-87
2023/09/03 20:40:22;;;;;;;4.55;1.92;;;18.50;89.10;;;17.23;70.40;100785.50;10369887;28;96585;-87
2023/09/03 20:45:26;;;;;;;3.28;2.03;;;18.40;89.60;;;17.15;71.01;100783.78;10323908;28;96882;-87
2023/09/03 20:50:37;;;;;;;2.10;1.70;;;18.30;90.00;;;17.10;71.63;100776.34;10316509;28;98762;-89
2023/09/03 20:55:53;;;;;;;3.55;2.00;;;18.20;90.20;;;17.05;71.85;100776.09;10319977;28;97027;-88